sensor_id;sensor_type;location;lat;lon;timestamp;P1;durP1;ratioP1;P2;durP2;ratioP2
42084;SDS011;27746;52.228;20.890;2022-11-15T00:02:06;34.42;;;17.50;;
42084;SDS011;27746;52.228;20.890;2022-11-15T00:04:33;35.55;;;18.67;;
42084;SDS011;27746;52.228;20.890;2022-11-15T00:07:01;34.95;;;18.85;;
42084;SDS011;27746;52.228;20.890;2022-11-15T00:09:29;34.30;;;18.88;;
42084;SDS011;27746;52.228;20.890;2022-11-15T00:11:56;35.00;;;19.27;;
42084;SDS011;27746;52.228;20.890;2022-11-15T00:14:23;39.63;;;20.65;;
42084;SDS011;27746;52.228;20.890;2022-11-15T00:16:50;42.50;;;22.55;;
42084;SDS011;27746;52.228;20.890;2022-11-15T00:19:17;39.15;;;20.92;;
42084;SDS011;27746;52.228;20.890;2022-11-15T00:21:44;37.75;;;21.10;;
42084;SDS011;27746;52.228;20.890;2022-11-15T00:24:12;47.45;;;24.65;;
42084;SDS011;27746;52.228;20.890;2022-11-15T00:26:39;47.20;;;24.42;;
42084;SDS011;27746;52.228;20.890;2022-11-15T00:29:06;50.90;;;24.40;;
42084;SDS011;27746;52.228;20.890;2022-11-15T00:31:33;52.55;;;25.92;;
42084;SDS011;27746;52.228;20.890;2022-11-15T00:34:00;54.22;;;27.70;;
42084;SDS011;27746;52.228;20.890;2022-11-15T00:36:27;54.22;;;27.20;;
42084;SDS011;27746;52.228;20.890;2022-11-15T00:38:55;57.20;;;26.83;;
42084;SDS011;27746;52.228;20.890;2022-11-15T00:41:23;53.25;;;26.20;;
42084;SDS011;27746;52.228;20.890;2022-11-15T00:43:50;55.40;;;27.70;;
42084;SDS011;27746;52.228;20.890;2022-11-15T00:46:17;57.47;;;28.75;;
42084;SDS011;27746;52.228;20.890;2022-11-15T00:48:44;54.40;;;27.10;;
42084;SDS011;27746;52.228;20.890;2022-11-15T00:51:11;57.72;;;27.02;;
42084;SDS011;27746;52.228;20.890;2022-11-15T00:53:38;61.53;;;30.73;;
42084;SDS011;27746;52.228;20.890;2022-11-15T00:56:05;52.65;;;26.38;;
42084;SDS011;27746;52.228;20.890;2022-11-15T00:58:34;61.38;;;27.85;;
42084;SDS011;27746;52.228;20.890;2022-11-15T01:01:08;55.70;;;27.23;;
42084;SDS011;27746;52.228;20.890;2022-11-15T01:03:35;51.67;;;25.90;;
42084;SDS011;27746;52.228;20.890;2022-11-15T01:06:02;59.30;;;27.90;;
42084;SDS011;27746;52.228;20.890;2022-11-15T01:08:30;53.03;;;26.00;;
42084;SDS011;27746;52.228;20.890;2022-11-15T01:11:00;59.42;;;27.80;;
42084;SDS011;27746;52.228;20.890;2022-11-15T01:13:29;58.72;;;28.77;;
42084;SDS011;27746;52.228;20.890;2022-11-15T01:15:57;54.78;;;27.25;;
42084;SDS011;27746;52.228;20.890;2022-11-15T01:18:24;55.00;;;27.73;;
42084;SDS011;27746;52.228;20.890;2022-11-15T01:20:51;57.83;;;27.80;;
42084;SDS011;27746;52.228;20.890;2022-11-15T01:23:18;53.05;;;26.17;;
42084;SDS011;27746;52.228;20.890;2022-11-15T01:25:45;62.03;;;28.17;;
42084;SDS011;27746;52.228;20.890;2022-11-15T01:28:12;55.88;;;28.65;;
42084;SDS011;27746;52.228;20.890;2022-11-15T01:30:39;55.05;;;27.05;;
42084;SDS011;27746;52.228;20.890;2022-11-15T01:33:08;51.83;;;27.33;;
42084;SDS011;27746;52.228;20.890;2022-11-15T01:35:37;56.65;;;27.48;;
42084;SDS011;27746;52.228;20.890;2022-11-15T01:38:05;51.63;;;25.60;;
42084;SDS011;27746;52.228;20.890;2022-11-15T01:40:32;58.20;;;28.25;;
42084;SDS011;27746;52.228;20.890;2022-11-15T01:42:59;51.72;;;25.40;;
42084;SDS011;27746;52.228;20.890;2022-11-15T01:45:26;53.47;;;28.35;;
42084;SDS011;27746;52.228;20.890;2022-11-15T01:47:53;57.92;;;26.70;;
42084;SDS011;27746;52.228;20.890;2022-11-15T01:50:23;53.40;;;26.35;;
42084;SDS011;27746;52.228;20.890;2022-11-15T01:52:52;52.40;;;26.20;;
42084;SDS011;27746;52.228;20.890;2022-11-15T01:55:20;49.30;;;25.08;;
42084;SDS011;27746;52.228;20.890;2022-11-15T01:57:49;51.08;;;24.98;;
42084;SDS011;27746;52.228;20.890;2022-11-15T02:00:17;55.88;;;25.45;;
42084;SDS011;27746;52.228;20.890;2022-11-15T02:02:44;55.15;;;26.33;;
42084;SDS011;27746;52.228;20.890;2022-11-15T02:05:11;54.33;;;27.35;;
42084;SDS011;27746;52.228;20.890;2022-11-15T02:07:39;50.75;;;25.83;;
42084;SDS011;27746;52.228;20.890;2022-11-15T02:10:08;47.85;;;25.27;;
42084;SDS011;27746;52.228;20.890;2022-11-15T02:12:35;54.17;;;29.50;;
42084;SDS011;27746;52.228;20.890;2022-11-15T02:15:03;48.70;;;25.73;;
42084;SDS011;27746;52.228;20.890;2022-11-15T02:17:33;52.17;;;29.00;;
42084;SDS011;27746;52.228;20.890;2022-11-15T02:22:51;57.30;;;27.02;;
42084;SDS011;27746;52.228;20.890;2022-11-15T02:25:28;58.50;;;28.23;;
42084;SDS011;27746;52.228;20.890;2022-11-15T02:28:06;57.80;;;28.55;;
42084;SDS011;27746;52.228;20.890;2022-11-15T02:30:40;57.53;;;29.77;;
42084;SDS011;27746;52.228;20.890;2022-11-15T02:33:10;60.42;;;30.13;;
42084;SDS011;27746;52.228;20.890;2022-11-15T02:35:43;62.22;;;29.88;;
42084;SDS011;27746;52.228;20.890;2022-11-15T02:38:12;57.67;;;28.38;;
42084;SDS011;27746;52.228;20.890;2022-11-15T02:40:45;57.27;;;28.90;;
42084;SDS011;27746;52.228;20.890;2022-11-15T02:43:15;60.42;;;29.48;;
42084;SDS011;27746;52.228;20.890;2022-11-15T02:46:03;58.33;;;29.55;;
42084;SDS011;27746;52.228;20.890;2022-11-15T02:48:32;63.55;;;28.42;;
42084;SDS011;27746;52.228;20.890;2022-11-15T02:50:59;58.70;;;31.30;;
42084;SDS011;27746;52.228;20.890;2022-11-15T02:53:27;61.80;;;32.17;;
42084;SDS011;27746;52.228;20.890;2022-11-15T02:55:54;61.25;;;29.75;;
42084;SDS011;27746;52.228;20.890;2022-11-15T02:58:40;59.10;;;28.88;;
42084;SDS011;27746;52.228;20.890;2022-11-15T03:01:14;63.42;;;29.95;;
42084;SDS011;27746;52.228;20.890;2022-11-15T03:03:48;64.30;;;30.58;;
42084;SDS011;27746;52.228;20.890;2022-11-15T03:06:23;55.15;;;29.55;;
42084;SDS011;27746;52.228;20.890;2022-11-15T03:08:53;55.95;;;29.42;;
42084;SDS011;27746;52.228;20.890;2022-11-15T03:11:21;63.75;;;29.77;;
42084;SDS011;27746;52.228;20.890;2022-11-15T03:13:52;62.95;;;31.25;;
42084;SDS011;27746;52.228;20.890;2022-11-15T03:16:23;62.67;;;30.77;;
42084;SDS011;27746;52.228;20.890;2022-11-15T03:18:52;62.00;;;30.13;;
42084;SDS011;27746;52.228;20.890;2022-11-15T03:21:20;65.70;;;29.58;;
42084;SDS011;27746;52.228;20.890;2022-11-15T03:23:48;60.45;;;30.70;;
42084;SDS011;27746;52.228;20.890;2022-11-15T03:26:16;63.08;;;29.55;;
42084;SDS011;27746;52.228;20.890;2022-11-15T03:28:46;63.85;;;29.00;;
42084;SDS011;27746;52.228;20.890;2022-11-15T03:31:16;64.25;;;29.80;;
42084;SDS011;27746;52.228;20.890;2022-11-15T03:34:04;58.05;;;28.20;;
42084;SDS011;27746;52.228;20.890;2022-11-15T03:36:32;56.40;;;27.48;;
42084;SDS011;27746;52.228;20.890;2022-11-15T03:39:00;59.92;;;28.08;;
42084;SDS011;27746;52.228;20.890;2022-11-15T03:41:29;56.95;;;27.17;;
42084;SDS011;27746;52.228;20.890;2022-11-15T03:43:59;59.97;;;27.80;;
42084;SDS011;27746;52.228;20.890;2022-11-15T03:46:31;63.53;;;27.38;;
42084;SDS011;27746;52.228;20.890;2022-11-15T03:49:00;61.40;;;29.38;;
42084;SDS011;27746;52.228;20.890;2022-11-15T03:51:30;63.10;;;31.00;;
42084;SDS011;27746;52.228;20.890;2022-11-15T03:53:57;63.85;;;30.88;;
42084;SDS011;27746;52.228;20.890;2022-11-15T03:56:24;61.70;;;31.38;;
42084;SDS011;27746;52.228;20.890;2022-11-15T03:58:51;66.75;;;29.48;;
42084;SDS011;27746;52.228;20.890;2022-11-15T04:01:18;65.35;;;29.60;;
42084;SDS011;27746;52.228;20.890;2022-11-15T04:03:45;57.85;;;27.98;;
42084;SDS011;27746;52.228;20.890;2022-11-15T04:06:12;63.15;;;30.25;;
42084;SDS011;27746;52.228;20.890;2022-11-15T04:08:41;53.25;;;24.88;;
42084;SDS011;27746;52.228;20.890;2022-11-15T04:11:08;61.15;;;28.10;;
42084;SDS011;27746;52.228;20.890;2022-11-15T04:13:35;55.97;;;26.23;;
42084;SDS011;27746;52.228;20.890;2022-11-15T04:16:02;55.97;;;26.30;;
42084;SDS011;27746;52.228;20.890;2022-11-15T04:18:29;64.22;;;28.90;;
42084;SDS011;27746;52.228;20.890;2022-11-15T04:20:56;58.38;;;27.63;;
42084;SDS011;27746;52.228;20.890;2022-11-15T04:23:42;62.97;;;26.88;;
42084;SDS011;27746;52.228;20.890;2022-11-15T04:26:26;63.13;;;28.05;;
42084;SDS011;27746;52.228;20.890;2022-11-15T04:28:53;68.60;;;27.90;;
42084;SDS011;27746;52.228;20.890;2022-11-15T04:31:34;63.05;;;29.25;;
42084;SDS011;27746;52.228;20.890;2022-11-15T04:34:01;68.45;;;30.83;;
42084;SDS011;27746;52.228;20.890;2022-11-15T04:36:28;64.25;;;29.98;;
42084;SDS011;27746;52.228;20.890;2022-11-15T04:39:15;63.13;;;28.55;;
42084;SDS011;27746;52.228;20.890;2022-11-15T04:41:42;63.95;;;31.15;;
42084;SDS011;27746;52.228;20.890;2022-11-15T04:44:09;54.40;;;25.17;;
42084;SDS011;27746;52.228;20.890;2022-11-15T04:46:36;59.25;;;27.67;;
42084;SDS011;27746;52.228;20.890;2022-11-15T04:49:03;64.63;;;31.35;;
42084;SDS011;27746;52.228;20.890;2022-11-15T04:51:30;65.07;;;28.08;;
42084;SDS011;27746;52.228;20.890;2022-11-15T04:53:57;60.20;;;27.08;;
42084;SDS011;27746;52.228;20.890;2022-11-15T04:56:25;60.90;;;28.25;;
42084;SDS011;27746;52.228;20.890;2022-11-15T04:58:52;65.97;;;27.70;;
42084;SDS011;27746;52.228;20.890;2022-11-15T05:01:19;67.05;;;28.80;;
42084;SDS011;27746;52.228;20.890;2022-11-15T05:03:47;68.38;;;30.05;;
42084;SDS011;27746;52.228;20.890;2022-11-15T05:06:31;62.80;;;28.20;;
42084;SDS011;27746;52.228;20.890;2022-11-15T05:08:59;62.70;;;28.67;;
42084;SDS011;27746;52.228;20.890;2022-11-15T05:11:27;64.07;;;27.90;;
42084;SDS011;27746;52.228;20.890;2022-11-15T05:13:54;60.30;;;28.08;;
42084;SDS011;27746;52.228;20.890;2022-11-15T05:16:21;59.53;;;28.92;;
42084;SDS011;27746;52.228;20.890;2022-11-15T05:18:50;63.83;;;27.83;;
42084;SDS011;27746;52.228;20.890;2022-11-15T05:21:17;66.55;;;30.35;;
42084;SDS011;27746;52.228;20.890;2022-11-15T05:23:44;66.60;;;29.10;;
42084;SDS011;27746;52.228;20.890;2022-11-15T05:26:11;65.90;;;27.58;;
42084;SDS011;27746;52.228;20.890;2022-11-15T05:28:40;61.60;;;27.67;;
42084;SDS011;27746;52.228;20.890;2022-11-15T05:31:07;63.15;;;29.02;;
42084;SDS011;27746;52.228;20.890;2022-11-15T05:33:35;60.80;;;28.55;;
42084;SDS011;27746;52.228;20.890;2022-11-15T05:36:04;59.67;;;26.40;;
42084;SDS011;27746;52.228;20.890;2022-11-15T05:38:31;64.20;;;27.33;;
42084;SDS011;27746;52.228;20.890;2022-11-15T05:40:59;57.83;;;27.77;;
42084;SDS011;27746;52.228;20.890;2022-11-15T05:43:26;62.63;;;29.45;;
42084;SDS011;27746;52.228;20.890;2022-11-15T05:45:55;58.70;;;26.17;;
42084;SDS011;27746;52.228;20.890;2022-11-15T05:48:23;55.72;;;24.63;;
42084;SDS011;27746;52.228;20.890;2022-11-15T05:50:50;52.50;;;24.25;;
42084;SDS011;27746;52.228;20.890;2022-11-15T05:53:19;60.10;;;26.48;;
42084;SDS011;27746;52.228;20.890;2022-11-15T05:55:46;63.00;;;25.80;;
42084;SDS011;27746;52.228;20.890;2022-11-15T05:58:13;62.45;;;24.70;;
42084;SDS011;27746;52.228;20.890;2022-11-15T06:00:41;60.15;;;26.10;;
42084;SDS011;27746;52.228;20.890;2022-11-15T06:03:09;61.35;;;24.15;;
42084;SDS011;27746;52.228;20.890;2022-11-15T06:05:36;54.55;;;25.50;;
42084;SDS011;27746;52.228;20.890;2022-11-15T06:08:03;68.75;;;24.60;;
42084;SDS011;27746;52.228;20.890;2022-11-15T06:10:30;57.30;;;26.10;;
42084;SDS011;27746;52.228;20.890;2022-11-15T06:12:57;61.55;;;25.80;;
42084;SDS011;27746;52.228;20.890;2022-11-15T06:15:24;56.65;;;25.10;;
42084;SDS011;27746;52.228;20.890;2022-11-15T06:17:52;64.53;;;25.13;;
42084;SDS011;27746;52.228;20.890;2022-11-15T06:20:23;58.33;;;27.85;;
42084;SDS011;27746;52.228;20.890;2022-11-15T06:22:50;56.47;;;25.88;;
42084;SDS011;27746;52.228;20.890;2022-11-15T06:25:17;66.18;;;28.00;;
42084;SDS011;27746;52.228;20.890;2022-11-15T06:27:47;58.30;;;24.30;;
42084;SDS011;27746;52.228;20.890;2022-11-15T06:30:17;58.47;;;25.53;;
42084;SDS011;27746;52.228;20.890;2022-11-15T06:32:44;54.13;;;24.17;;
42084;SDS011;27746;52.228;20.890;2022-11-15T06:35:11;52.78;;;23.75;;
42084;SDS011;27746;52.228;20.890;2022-11-15T06:37:40;53.38;;;22.45;;
42084;SDS011;27746;52.228;20.890;2022-11-15T06:40:08;51.75;;;22.02;;
42084;SDS011;27746;52.228;20.890;2022-11-15T06:42:35;46.50;;;21.23;;
42084;SDS011;27746;52.228;20.890;2022-11-15T06:45:02;53.75;;;23.25;;
42084;SDS011;27746;52.228;20.890;2022-11-15T06:47:29;48.50;;;21.65;;
42084;SDS011;27746;52.228;20.890;2022-11-15T06:49:56;52.90;;;21.40;;
42084;SDS011;27746;52.228;20.890;2022-11-15T06:52:23;43.83;;;21.65;;
42084;SDS011;27746;52.228;20.890;2022-11-15T06:54:52;52.72;;;20.63;;
42084;SDS011;27746;52.228;20.890;2022-11-15T06:57:19;45.58;;;20.50;;
42084;SDS011;27746;52.228;20.890;2022-11-15T06:59:46;47.67;;;20.73;;
42084;SDS011;27746;52.228;20.890;2022-11-15T07:02:13;52.60;;;21.55;;
42084;SDS011;27746;52.228;20.890;2022-11-15T07:04:40;47.60;;;21.70;;
42084;SDS011;27746;52.228;20.890;2022-11-15T07:07:07;47.65;;;23.15;;
42084;SDS011;27746;52.228;20.890;2022-11-15T07:09:34;60.35;;;25.42;;
42084;SDS011;27746;52.228;20.890;2022-11-15T07:12:03;63.65;;;22.63;;
42084;SDS011;27746;52.228;20.890;2022-11-15T07:14:30;50.25;;;21.35;;
42084;SDS011;27746;52.228;20.890;2022-11-15T07:16:57;48.90;;;21.38;;
42084;SDS011;27746;52.228;20.890;2022-11-15T07:19:24;53.13;;;21.08;;
42084;SDS011;27746;52.228;20.890;2022-11-15T07:21:52;46.33;;;21.95;;
42084;SDS011;27746;52.228;20.890;2022-11-15T07:24:19;53.35;;;22.13;;
42084;SDS011;27746;52.228;20.890;2022-11-15T07:26:46;60.65;;;24.02;;
42084;SDS011;27746;52.228;20.890;2022-11-15T07:29:14;53.42;;;21.83;;
42084;SDS011;27746;52.228;20.890;2022-11-15T07:31:41;57.88;;;22.35;;
42084;SDS011;27746;52.228;20.890;2022-11-15T07:34:08;53.22;;;22.52;;
42084;SDS011;27746;52.228;20.890;2022-11-15T07:36:35;54.58;;;23.08;;
42084;SDS011;27746;52.228;20.890;2022-11-15T07:39:02;49.00;;;24.45;;
42084;SDS011;27746;52.228;20.890;2022-11-15T07:41:29;48.95;;;22.30;;
42084;SDS011;27746;52.228;20.890;2022-11-15T07:43:56;53.75;;;21.52;;
42084;SDS011;27746;52.228;20.890;2022-11-15T07:46:25;48.58;;;22.35;;
42084;SDS011;27746;52.228;20.890;2022-11-15T07:48:52;49.38;;;21.27;;
42084;SDS011;27746;52.228;20.890;2022-11-15T07:51:19;49.60;;;20.42;;
42084;SDS011;27746;52.228;20.890;2022-11-15T07:53:46;54.67;;;23.77;;
42084;SDS011;27746;52.228;20.890;2022-11-15T07:56:13;47.50;;;20.73;;
42084;SDS011;27746;52.228;20.890;2022-11-15T07:58:40;37.92;;;20.30;;
42084;SDS011;27746;52.228;20.890;2022-11-15T08:01:08;45.67;;;21.90;;
42084;SDS011;27746;52.228;20.890;2022-11-15T08:03:37;45.03;;;21.48;;
42084;SDS011;27746;52.228;20.890;2022-11-15T08:06:04;48.22;;;21.65;;
42084;SDS011;27746;52.228;20.890;2022-11-15T08:08:31;52.60;;;23.55;;
42084;SDS011;27746;52.228;20.890;2022-11-15T08:10:58;56.60;;;24.15;;
42084;SDS011;27746;52.228;20.890;2022-11-15T08:13:26;54.50;;;22.00;;
42084;SDS011;27746;52.228;20.890;2022-11-15T08:15:56;48.55;;;21.60;;
42084;SDS011;27746;52.228;20.890;2022-11-15T08:18:24;56.42;;;22.90;;
42084;SDS011;27746;52.228;20.890;2022-11-15T08:20:52;51.70;;;24.85;;
42084;SDS011;27746;52.228;20.890;2022-11-15T08:23:19;51.28;;;23.40;;
42084;SDS011;27746;52.228;20.890;2022-11-15T08:25:46;43.67;;;21.17;;
42084;SDS011;27746;52.228;20.890;2022-11-15T08:28:13;44.75;;;21.23;;
42084;SDS011;27746;52.228;20.890;2022-11-15T08:30:43;48.75;;;20.50;;
42084;SDS011;27746;52.228;20.890;2022-11-15T08:33:11;44.95;;;21.13;;
42084;SDS011;27746;52.228;20.890;2022-11-15T08:35:38;45.83;;;22.27;;
42084;SDS011;27746;52.228;20.890;2022-11-15T08:38:07;49.88;;;22.70;;
42084;SDS011;27746;52.228;20.890;2022-11-15T08:40:34;46.33;;;20.63;;
42084;SDS011;27746;52.228;20.890;2022-11-15T08:43:01;43.72;;;22.00;;
42084;SDS011;27746;52.228;20.890;2022-11-15T08:45:29;42.65;;;21.15;;
42084;SDS011;27746;52.228;20.890;2022-11-15T08:47:56;44.00;;;21.30;;
42084;SDS011;27746;52.228;20.890;2022-11-15T08:50:23;50.90;;;23.00;;
42084;SDS011;27746;52.228;20.890;2022-11-15T08:52:50;48.10;;;23.25;;
42084;SDS011;27746;52.228;20.890;2022-11-15T08:55:18;47.28;;;22.35;;
42084;SDS011;27746;52.228;20.890;2022-11-15T08:57:45;56.08;;;22.63;;
42084;SDS011;27746;52.228;20.890;2022-11-15T09:00:13;48.33;;;21.85;;
42084;SDS011;27746;52.228;20.890;2022-11-15T09:02:40;47.63;;;21.98;;
42084;SDS011;27746;52.228;20.890;2022-11-15T09:05:08;48.50;;;22.63;;
42084;SDS011;27746;52.228;20.890;2022-11-15T09:07:35;42.85;;;21.50;;
42084;SDS011;27746;52.228;20.890;2022-11-15T09:10:02;43.45;;;22.08;;
42084;SDS011;27746;52.228;20.890;2022-11-15T09:12:30;42.70;;;22.30;;
42084;SDS011;27746;52.228;20.890;2022-11-15T09:14:57;49.40;;;23.02;;
42084;SDS011;27746;52.228;20.890;2022-11-15T09:17:24;51.25;;;22.92;;
42084;SDS011;27746;52.228;20.890;2022-11-15T09:19:51;47.95;;;22.05;;
42084;SDS011;27746;52.228;20.890;2022-11-15T09:22:19;49.90;;;22.83;;
42084;SDS011;27746;52.228;20.890;2022-11-15T09:24:46;48.58;;;22.02;;
42084;SDS011;27746;52.228;20.890;2022-11-15T09:27:13;50.85;;;23.38;;
42084;SDS011;27746;52.228;20.890;2022-11-15T09:29:41;48.40;;;22.02;;
42084;SDS011;27746;52.228;20.890;2022-11-15T09:32:08;47.05;;;22.77;;
42084;SDS011;27746;52.228;20.890;2022-11-15T09:34:35;41.92;;;21.13;;
42084;SDS011;27746;52.228;20.890;2022-11-15T09:37:02;47.28;;;23.45;;
42084;SDS011;27746;52.228;20.890;2022-11-15T09:39:29;51.33;;;24.10;;
42084;SDS011;27746;52.228;20.890;2022-11-15T09:44:50;45.08;;;22.05;;
42084;SDS011;27746;52.228;20.890;2022-11-15T09:47:29;52.83;;;24.60;;
42084;SDS011;27746;52.228;20.890;2022-11-15T09:50:00;48.85;;;23.38;;
42084;SDS011;27746;52.228;20.890;2022-11-15T09:52:28;51.97;;;22.63;;
42084;SDS011;27746;52.228;20.890;2022-11-15T09:54:55;54.72;;;25.42;;
42084;SDS011;27746;52.228;20.890;2022-11-15T09:57:26;47.67;;;24.73;;
42084;SDS011;27746;52.228;20.890;2022-11-15T10:00:08;54.30;;;24.60;;
42084;SDS011;27746;52.228;20.890;2022-11-15T10:02:41;44.28;;;22.73;;
42084;SDS011;27746;52.228;20.890;2022-11-15T10:05:12;47.15;;;22.15;;
42084;SDS011;27746;52.228;20.890;2022-11-15T10:07:42;48.00;;;22.55;;
42084;SDS011;27746;52.228;20.890;2022-11-15T10:10:13;56.33;;;26.27;;
42084;SDS011;27746;52.228;20.890;2022-11-15T10:12:43;48.40;;;25.05;;
42084;SDS011;27746;52.228;20.890;2022-11-15T10:15:14;57.15;;;25.65;;
42084;SDS011;27746;52.228;20.890;2022-11-15T10:17:57;50.50;;;24.50;;
42084;SDS011;27746;52.228;20.890;2022-11-15T10:20:27;52.72;;;25.27;;
42084;SDS011;27746;52.228;20.890;2022-11-15T10:22:55;58.55;;;26.00;;
42084;SDS011;27746;52.228;20.890;2022-11-15T10:25:26;46.97;;;24.60;;
42084;SDS011;27746;52.228;20.890;2022-11-15T10:27:56;52.67;;;24.55;;
42084;SDS011;27746;52.228;20.890;2022-11-15T10:30:31;52.08;;;25.58;;
42084;SDS011;27746;52.228;20.890;2022-11-15T10:33:00;46.90;;;25.10;;
42084;SDS011;27746;52.228;20.890;2022-11-15T10:35:48;53.63;;;24.83;;
42084;SDS011;27746;52.228;20.890;2022-11-15T10:38:14;48.78;;;24.10;;
42084;SDS011;27746;52.228;20.890;2022-11-15T10:40:41;51.80;;;25.08;;
42084;SDS011;27746;52.228;20.890;2022-11-15T10:43:13;47.03;;;23.23;;
42084;SDS011;27746;52.228;20.890;2022-11-15T10:45:43;49.75;;;25.08;;
42084;SDS011;27746;52.228;20.890;2022-11-15T10:48:21;56.75;;;27.45;;
42084;SDS011;27746;52.228;20.890;2022-11-15T10:50:51;58.70;;;28.13;;
42084;SDS011;27746;52.228;20.890;2022-11-15T10:53:24;52.42;;;26.08;;
42084;SDS011;27746;52.228;20.890;2022-11-15T10:55:56;60.38;;;27.02;;
42084;SDS011;27746;52.228;20.890;2022-11-15T10:58:32;52.58;;;27.10;;
42084;SDS011;27746;52.228;20.890;2022-11-15T11:01:14;58.08;;;28.35;;
42084;SDS011;27746;52.228;20.890;2022-11-15T11:03:43;57.22;;;29.95;;
42084;SDS011;27746;52.228;20.890;2022-11-15T11:06:12;52.90;;;26.25;;
42084;SDS011;27746;52.228;20.890;2022-11-15T11:08:40;55.38;;;26.13;;
42084;SDS011;27746;52.228;20.890;2022-11-15T11:11:19;54.30;;;24.98;;
42084;SDS011;27746;52.228;20.890;2022-11-15T11:13:46;49.38;;;24.25;;
42084;SDS011;27746;52.228;20.890;2022-11-15T11:16:23;54.13;;;26.85;;
42084;SDS011;27746;52.228;20.890;2022-11-15T11:19:02;55.63;;;27.50;;
42084;SDS011;27746;52.228;20.890;2022-11-15T11:21:41;70.43;;;32.47;;
42084;SDS011;27746;52.228;20.890;2022-11-15T11:24:17;70.05;;;33.20;;
42084;SDS011;27746;52.228;20.890;2022-11-15T11:26:55;61.00;;;29.90;;
42084;SDS011;27746;52.228;20.890;2022-11-15T11:29:34;59.55;;;28.05;;
42084;SDS011;27746;52.228;20.890;2022-11-15T11:32:17;58.08;;;28.10;;
42084;SDS011;27746;52.228;20.890;2022-11-15T11:35:01;59.05;;;28.42;;
42084;SDS011;27746;52.228;20.890;2022-11-15T11:37:35;60.30;;;28.83;;
42084;SDS011;27746;52.228;20.890;2022-11-15T11:40:10;66.50;;;30.40;;
42084;SDS011;27746;52.228;20.890;2022-11-15T11:42:48;56.33;;;26.02;;
42084;SDS011;27746;52.228;20.890;2022-11-15T11:45:28;57.80;;;27.75;;
42084;SDS011;27746;52.228;20.890;2022-11-15T11:48:13;52.65;;;27.88;;
42084;SDS011;27746;52.228;20.890;2022-11-15T11:50:44;58.53;;;30.20;;
42084;SDS011;27746;52.228;20.890;2022-11-15T11:53:14;57.47;;;29.08;;
42084;SDS011;27746;52.228;20.890;2022-11-15T11:55:44;60.67;;;29.02;;
42084;SDS011;27746;52.228;20.890;2022-11-15T11:58:14;59.55;;;30.88;;
42084;SDS011;27746;52.228;20.890;2022-11-15T12:00:46;58.88;;;29.73;;
42084;SDS011;27746;52.228;20.890;2022-11-15T12:03:21;59.08;;;29.50;;
42084;SDS011;27746;52.228;20.890;2022-11-15T12:05:54;52.10;;;26.92;;
42084;SDS011;27746;52.228;20.890;2022-11-15T12:08:26;54.45;;;27.75;;
42084;SDS011;27746;52.228;20.890;2022-11-15T12:10:59;53.38;;;26.67;;
42084;SDS011;27746;52.228;20.890;2022-11-15T12:13:34;55.88;;;28.75;;
42084;SDS011;27746;52.228;20.890;2022-11-15T12:16:05;57.65;;;27.15;;
42084;SDS011;27746;52.228;20.890;2022-11-15T12:18:37;51.92;;;26.75;;
42084;SDS011;27746;52.228;20.890;2022-11-15T12:21:05;54.33;;;26.88;;
42084;SDS011;27746;52.228;20.890;2022-11-15T12:23:41;55.78;;;28.00;;
42084;SDS011;27746;52.228;20.890;2022-11-15T12:26:15;53.17;;;24.92;;
42084;SDS011;27746;52.228;20.890;2022-11-15T12:28:45;48.50;;;25.17;;
42084;SDS011;27746;52.228;20.890;2022-11-15T12:31:18;48.08;;;23.80;;
42084;SDS011;27746;52.228;20.890;2022-11-15T12:33:54;53.03;;;26.95;;
42084;SDS011;27746;52.228;20.890;2022-11-15T12:36:34;54.97;;;27.00;;
42084;SDS011;27746;52.228;20.890;2022-11-15T12:39:03;52.15;;;26.88;;
42084;SDS011;27746;52.228;20.890;2022-11-15T12:41:31;52.70;;;28.83;;
42084;SDS011;27746;52.228;20.890;2022-11-15T12:43:59;52.08;;;27.15;;
42084;SDS011;27746;52.228;20.890;2022-11-15T12:49:44;53.17;;;26.90;;
42084;SDS011;27746;52.228;20.890;2022-11-15T12:52:12;54.85;;;26.90;;
42084;SDS011;27746;52.228;20.890;2022-11-15T12:57:44;50.45;;;26.95;;
42084;SDS011;27746;52.228;20.890;2022-11-15T13:03:19;57.35;;;27.92;;
42084;SDS011;27746;52.228;20.890;2022-11-15T13:06:00;55.90;;;28.17;;
42084;SDS011;27746;52.228;20.890;2022-11-15T13:08:35;51.15;;;25.88;;
42084;SDS011;27746;52.228;20.890;2022-11-15T13:14:03;124.85;;;66.22;;
42084;SDS011;27746;52.228;20.890;2022-11-15T13:17:23;77.47;;;38.80;;
42084;SDS011;27746;52.228;20.890;2022-11-15T13:19:59;55.33;;;28.25;;
42084;SDS011;27746;52.228;20.890;2022-11-15T13:22:46;55.97;;;29.50;;
42084;SDS011;27746;52.228;20.890;2022-11-15T13:25:16;57.13;;;28.02;;
42084;SDS011;27746;52.228;20.890;2022-11-15T13:27:58;65.72;;;31.95;;
42084;SDS011;27746;52.228;20.890;2022-11-15T13:30:27;59.63;;;28.45;;
42084;SDS011;27746;52.228;20.890;2022-11-15T13:32:56;58.08;;;29.85;;
42084;SDS011;27746;52.228;20.890;2022-11-15T13:35:28;59.13;;;29.15;;
42084;SDS011;27746;52.228;20.890;2022-11-15T13:38:03;57.33;;;27.90;;
42084;SDS011;27746;52.228;20.890;2022-11-15T13:40:34;60.88;;;31.63;;
42084;SDS011;27746;52.228;20.890;2022-11-15T13:43:15;57.33;;;30.35;;
42084;SDS011;27746;52.228;20.890;2022-11-15T13:46:03;63.33;;;31.13;;
42084;SDS011;27746;52.228;20.890;2022-11-15T13:48:34;61.22;;;30.50;;
42084;SDS011;27746;52.228;20.890;2022-11-15T13:51:01;61.38;;;31.98;;
42084;SDS011;27746;52.228;20.890;2022-11-15T13:53:31;60.95;;;31.80;;
42084;SDS011;27746;52.228;20.890;2022-11-15T13:55:59;64.43;;;32.17;;
42084;SDS011;27746;52.228;20.890;2022-11-15T13:58:28;59.75;;;28.70;;
42084;SDS011;27746;52.228;20.890;2022-11-15T14:00:59;63.45;;;33.22;;
42084;SDS011;27746;52.228;20.890;2022-11-15T14:03:28;65.15;;;30.45;;
42084;SDS011;27746;52.228;20.890;2022-11-15T14:06:04;67.43;;;33.47;;
42084;SDS011;27746;52.228;20.890;2022-11-15T14:08:34;69.20;;;33.75;;
42084;SDS011;27746;52.228;20.890;2022-11-15T14:11:09;68.88;;;31.77;;
42084;SDS011;27746;52.228;20.890;2022-11-15T14:13:40;67.63;;;32.90;;
42084;SDS011;27746;52.228;20.890;2022-11-15T14:16:15;66.95;;;32.85;;
42084;SDS011;27746;52.228;20.890;2022-11-15T14:18:45;64.90;;;30.38;;
42084;SDS011;27746;52.228;20.890;2022-11-15T14:21:15;64.47;;;30.88;;
42084;SDS011;27746;52.228;20.890;2022-11-15T14:23:44;65.75;;;32.53;;
42084;SDS011;27746;52.228;20.890;2022-11-15T14:26:25;59.25;;;29.23;;
42084;SDS011;27746;52.228;20.890;2022-11-15T14:28:54;63.10;;;29.70;;
42084;SDS011;27746;52.228;20.890;2022-11-15T14:31:20;57.97;;;30.00;;
42084;SDS011;27746;52.228;20.890;2022-11-15T14:33:47;54.88;;;29.05;;
42084;SDS011;27746;52.228;20.890;2022-11-15T14:36:15;63.58;;;33.33;;
42084;SDS011;27746;52.228;20.890;2022-11-15T14:38:45;61.33;;;30.77;;
42084;SDS011;27746;52.228;20.890;2022-11-15T14:41:20;62.45;;;30.70;;
42084;SDS011;27746;52.228;20.890;2022-11-15T14:43:48;62.67;;;29.63;;